Time;durP1;ratioP1;P1;durP2;ratioP2;P2;SDS_P1;SDS_P2;PMS_P1;PMS_P2;Temp;Humidity;BMP_temperature;BMP_pressure;BME280_temperature;BME280_humidity;BME280_pressure;Samples;Min_cycle;Max_cycle;Signal;HPM_P1;HPM_P2
2022/11/21 00:00:36;;;;;;;;;3.67;1.33;;;;;10.74;67.74;100685.91;5041048;28;45344;-62
2022/11/21 00:03:02;;;;;;;;;4.00;4.00;;;;;10.69;68.02;100677.78;5039837;28;45179;-62
2022/11/21 00:05:29;;;;;;;;;3.75;2.25;;;;;10.67;68.13;100676.84;5053283;28;45125;-61
2022/11/21 00:07:55;;;;;;;;;4.00;2.75;;;;;10.69;67.81;100685.81;5054107;28;45052;-61
2022/11/21 00:10:22;;;;;;;;;2.25;2.00;;;;;10.67;67.83;100685.78;5052403;28;45017;-61
2022/11/21 00:12:51;;;;;;;;;1.00;0.67;;;;;10.67;67.84;100677.78;5035054;28;45034;-61
2022/11/21 00:15:17;;;;;;;;;5.33;2.67;;;;;10.67;66.97;100674.19;5052066;28;45549;-62
2022/11/21 00:17:42;;;;;;;;;3.25;2.00;;;;;10.68;67.98;100676.91;5054469;28;45259;-62
2022/11/21 00:20:07;;;;;;;;;5.00;1.33;;;;;10.73;68.01;100681.47;5054636;28;45173;-60
2022/11/21 00:22:33;;;;;;;;;3.75;1.75;;;;;10.75;67.23;100675.28;5052401;28;45210;-61
2022/11/21 00:24:59;;;;;;;;;6.00;2.33;;;;;10.76;67.67;100673.53;5052723;28;45238;-62
2022/11/21 00:27:25;;;;;;;;;4.50;2.50;;;;;10.76;67.52;100671.75;5052893;28;45230;-62
2022/11/21 00:29:50;;;;;;;;;2.50;1.75;;;;;10.74;67.85;100660.13;5052331;28;45081;-63
2022/11/21 00:32:15;;;;;;;;;2.50;2.25;;;;;10.73;68.19;100655.63;5028495;28;45286;-64
2022/11/21 00:34:41;;;;;;;;;4.00;2.25;;;;;10.75;68.13;100645.88;5047975;28;45626;-62
2022/11/21 00:37:06;;;;;;;;;3.00;1.33;;;;;10.75;67.60;100634.28;5052089;28;44977;-61
2022/11/21 00:39:31;;;;;;;;;6.75;3.00;;;;;10.82;67.42;100637.16;5030332;28;45009;-61
2022/11/21 00:41:57;;;;;;;;;4.33;1.00;;;;;10.74;67.34;100611.09;5051685;28;44957;-60
2022/11/21 00:44:22;;;;;;;;;2.33;2.00;;;;;10.83;67.55;100627.38;5052730;28;45337;-61
2022/11/21 00:46:47;;;;;;;;;6.00;2.33;;;;;10.82;67.60;100628.22;5052531;28;45021;-61
2022/11/21 00:49:13;;;;;;;;;1.00;1.00;;;;;10.81;67.81;100619.31;5051790;28;45276;-61
2022/11/21 00:51:38;;;;;;;;;6.67;3.00;;;;;10.79;67.83;100615.72;5052719;28;45257;-61
2022/11/21 00:54:03;;;;;;;;;1.67;1.33;;;;;10.82;67.52;100617.53;5031570;28;45918;-61
2022/11/21 00:56:29;;;;;;;;;4.33;3.00;;;;;10.85;67.49;100621.16;5052805;28;45169;-61
2022/11/21 00:58:54;;;;;;;;;4.00;3.33;;;;;10.79;67.01;100610.38;5052830;28;45052;-61
2022/11/21 01:01:19;;;;;;;;;3.67;2.33;;;;;10.76;67.55;100609.41;5034625;28;44881;-61
2022/11/21 01:03:45;;;;;;;;;2.33;0.33;;;;;10.80;67.43;100613.94;5050362;28;45896;-61
2022/11/21 01:06:12;;;;;;;;;3.33;2.67;;;;;10.84;67.83;100618.50;5052439;28;45213;-62
2022/11/21 01:08:40;;;;;;;;;2.00;2.00;;;;;10.86;67.55;100611.41;5051891;28;45169;-61
2022/11/21 01:11:09;;;;;;;;;8.33;2.67;;;;;10.83;67.73;100608.66;5046114;28;44848;-61
2022/11/21 01:13:35;;;;;;;;;2.33;1.00;;;;;10.79;67.61;100605.00;5051524;28;45038;-61
2022/11/21 01:16:10;;;;;;;;;4.67;4.00;;;;;10.75;67.78;100607.56;5030360;28;45126;-61
2022/11/21 01:18:36;;;;;;;;;5.33;2.00;;;;;10.75;67.86;100603.13;5034425;28;45156;-61
2022/11/21 01:21:04;;;;;;;;;3.67;2.00;;;;;10.69;67.90;100594.97;5051612;28;45195;-60
2022/11/21 01:23:30;;;;;;;;;2.50;2.50;;;;;10.52;68.10;100551.81;5051167;28;45451;-61
2022/11/21 01:26:00;;;;;;;;;3.33;3.00;;;;;10.62;68.05;100572.53;5051818;28;44887;-61
2022/11/21 01:28:26;;;;;;;;;5.25;2.25;;;;;10.75;68.26;100596.88;5052454;28;45016;-60
2022/11/21 01:30:51;;;;;;;;;3.67;3.67;;;;;10.69;68.85;100579.84;5027999;28;45346;-61
2022/11/21 01:33:16;;;;;;;;;2.33;2.00;;;;;10.67;68.40;100586.00;5052548;28;45714;-61
2022/11/21 01:35:41;;;;;;;;;3.00;2.33;;;;;10.70;68.85;100594.09;5053559;28;45087;-62
2022/11/21 01:38:07;;;;;;;;;2.67;1.67;;;;;10.67;68.62;100594.94;5051701;28;45379;-61
2022/11/21 01:40:37;;;;;;;;;3.75;3.00;;;;;10.65;69.10;100585.97;5052173;28;44973;-61
2022/11/21 01:43:11;;;;;;;;;1.33;1.00;;;;;10.64;68.93;100583.25;5051010;28;45543;-62
2022/11/21 01:45:58;;;;;;;;;3.67;2.67;;;;;10.61;68.96;100567.16;5046610;28;45463;-61
2022/11/21 01:48:46;;;;;;;;;5.00;1.00;;;;;10.64;69.02;100561.88;5048735;28;44907;-61
2022/11/21 01:51:11;;;;;;;;;2.67;1.00;;;;;10.64;69.14;100556.53;5052924;28;45316;-61
2022/11/21 01:53:38;;;;;;;;;5.00;3.67;;;;;10.60;68.91;100546.66;5050463;28;45212;-60
2022/11/21 01:56:05;;;;;;;;;3.75;2.50;;;;;10.60;69.13;100542.22;5052190;28;45047;-62
2022/11/21 01:58:33;;;;;;;;;4.00;3.00;;;;;10.57;69.18;100538.59;5048479;28;45271;-61
2022/11/21 02:01:00;;;;;;;;;3.00;1.00;;;;;10.55;69.40;100541.22;5051184;28;45154;-60
2022/11/21 02:03:31;;;;;;;;;2.25;1.25;;;;;10.52;69.36;100530.47;5051637;28;45941;-62
2022/11/21 02:05:57;;;;;;;;;4.00;2.00;;;;;10.46;69.52;100520.53;5052175;28;44922;-61
2022/11/21 02:08:25;;;;;;;;;5.00;2.33;;;;;10.46;69.29;100527.63;5050747;28;45016;-62
2022/11/21 02:11:08;;;;;;;;;2.33;1.00;;;;;10.54;69.58;100546.53;5051570;28;45075;-61
2022/11/21 02:13:33;;;;;;;;;6.00;3.00;;;;;10.49;69.62;100543.75;5047567;28;45093;-62
2022/11/21 02:15:59;;;;;;;;;6.00;2.67;;;;;10.49;69.32;100547.34;5049281;28;44982;-60
2022/11/21 02:18:24;;;;;;;;;5.00;4.25;;;;;10.49;69.55;100531.31;5050030;28;44927;-60
2022/11/21 02:20:56;;;;;;;;;5.67;3.00;;;;;10.47;69.34;100538.34;5050290;28;45024;-60
2022/11/21 02:23:43;;;;;;;;;5.67;2.67;;;;;10.43;69.77;100520.47;5051130;28;45366;-60
2022/11/21 02:26:09;;;;;;;;;3.25;1.75;;;;;10.31;69.94;100491.69;5050590;28;45156;-61
2022/11/21 02:28:35;;;;;;;;;5.00;2.00;;;;;10.49;69.66;100517.03;5051475;28;45084;-61
2022/11/21 02:31:00;;;;;;;;;6.00;3.33;;;;;10.33;69.53;100481.97;5051250;28;45138;-60
2022/11/21 02:33:26;;;;;;;;;5.00;2.75;;;;;10.40;69.12;100485.69;5049961;28;45357;-60
2022/11/21 02:35:59;;;;;;;;;6.00;3.00;;;;;10.49;69.43;100495.66;5051071;28;45044;-61
2022/11/21 02:38:30;;;;;;;;;4.00;3.00;;;;;10.56;69.32;100494.94;5051607;28;44978;-61
2022/11/21 02:41:25;;;;;;;;;2.00;2.00;;;;;10.57;69.35;100501.19;5051369;28;44951;-61
2022/11/21 02:43:56;;;;;;;;;5.50;3.50;;;;;10.45;69.84;100469.75;5049689;28;45601;-61
2022/11/21 02:46:21;;;;;;;;;4.33;4.00;;;;;10.58;68.85;100498.56;5047379;28;44960;-62
2022/11/21 02:48:47;;;;;;;;;6.33;4.00;;;;;10.55;69.20;100490.47;5055708;28;45300;-62
2022/11/21 02:51:12;;;;;;;;;5.33;2.00;;;;;10.50;69.31;100490.34;5050767;28;45081;-61
2022/11/21 02:53:37;;;;;;;;;5.75;4.00;;;;;10.49;69.00;100493.00;5031955;28;47481;-60
2022/11/21 02:56:03;;;;;;;;;4.67;2.00;;;;;10.49;68.89;100503.66;5050924;28;45048;-61
2022/11/21 02:58:28;;;;;;;;;7.50;3.25;;;;;10.46;69.21;100468.88;5052305;28;45006;-62
2022/11/21 03:00:54;;;;;;;;;0.67;0.67;;;;;10.58;69.02;100473.63;5052853;28;45128;-60
2022/11/21 03:03:20;;;;;;;;;3.00;3.00;;;;;10.51;68.42;100451.22;5051437;28;45218;-61
2022/11/21 03:05:45;;;;;;;;;7.67;4.33;;;;;10.61;68.62;100465.63;5032369;28;45471;-61
2022/11/21 03:08:10;;;;;;;;;4.75;3.75;;;;;10.58;69.10;100468.28;5051185;28;45026;-62
2022/11/21 03:10:36;;;;;;;;;3.33;2.00;;;;;10.54;68.83;100469.06;5050827;28;45408;-61
2022/11/21 03:13:02;;;;;;;;;1.33;1.00;;;;;10.48;68.82;100467.16;5028353;28;47333;-61
2022/11/21 03:15:29;;;;;;;;;3.00;2.33;;;;;10.35;68.97;100441.06;5031955;28;45229;-61
2022/11/21 03:17:55;;;;;;;;;9.67;4.00;;;;;10.41;69.59;100468.81;5050419;28;45182;-61
2022/11/21 03:20:20;;;;;;;;;4.00;2.67;;;;;10.42;69.32;100459.00;5049226;28;45231;-61
2022/11/21 03:22:46;;;;;;;;;4.33;2.67;;;;;10.44;69.64;100450.19;5050641;28;46008;-62
2022/11/21 03:25:11;;;;;;;;;6.67;2.00;;;;;10.44;69.43;100435.91;5050579;28;45955;-61
2022/11/21 03:27:36;;;;;;;;;5.33;2.67;;;;;10.50;69.60;100436.03;5052125;28;44977;-61
2022/11/21 03:30:02;;;;;;;;;8.67;2.00;;;;;10.51;69.23;100425.41;5036103;28;44967;-61
2022/11/21 03:32:28;;;;;;;;;4.00;3.00;;;;;10.50;69.04;100423.56;5035376;28;45644;-63
2022/11/21 03:34:53;;;;;;;;;5.00;3.00;;;;;10.57;68.98;100418.38;5052428;28;45866;-60
2022/11/21 03:37:19;;;;;;;;;4.00;2.67;;;;;10.56;68.97;100401.47;5052487;28;45061;-62
2022/11/21 03:39:44;;;;;;;;;3.00;2.00;;;;;10.56;69.33;100400.53;5053556;28;45134;-63
2022/11/21 03:42:09;;;;;;;;;7.25;5.00;;;;;10.51;68.76;100389.78;5052063;28;45475;-60
2022/11/21 03:44:35;;;;;;;;;8.50;3.00;;;;;10.51;68.78;100395.13;5054104;28;45215;-61
2022/11/21 03:47:00;;;;;;;;;4.75;4.75;;;;;10.43;69.17;100375.38;5054348;28;45168;-62
2022/11/21 03:49:25;;;;;;;;;4.25;3.75;;;;;10.49;69.13;100394.16;5053418;28;45115;-61
2022/11/21 03:51:51;;;;;;;;;6.50;5.50;;;;;10.48;69.00;100390.59;5052348;28;45572;-61
2022/11/21 03:54:16;;;;;;;;;4.00;2.33;;;;;10.40;69.21;100377.97;5051659;28;45045;-60
2022/11/21 03:56:41;;;;;;;;;6.00;3.33;;;;;10.46;68.82;100381.66;5052808;28;45644;-60
2022/11/21 03:59:07;;;;;;;;;4.00;4.00;;;;;10.43;69.16;100370.91;5049814;28;45274;-61
2022/11/21 04:01:32;;;;;;;;;3.75;3.25;;;;;10.57;69.02;100375.63;5051619;28;45949;-60
2022/11/21 04:03:58;;;;;;;;;13.75;12.00;;;;;10.45;68.38;100346.91;5050602;28;45146;-61
2022/11/21 04:06:23;;;;;;;;;8.25;5.00;;;;;10.57;68.42;100364.94;5048904;28;45251;-62
2022/11/21 04:08:49;;;;;;;;;14.50;4.75;;;;;10.57;68.75;100349.81;5050479;28;45148;-61
2022/11/21 04:11:15;;;;;;;;;3.00;3.00;;;;;10.60;68.44;100354.34;5050975;28;46204;-61
2022/11/21 04:13:40;;;;;;;;;3.50;2.75;;;;;10.53;68.96;100329.28;5049884;28;45190;-62
2022/11/21 04:16:06;;;;;;;;;5.25;3.00;;;;;10.60;68.61;100324.94;5048596;28;45042;-61
2022/11/21 04:18:33;;;;;;;;;6.75;2.50;;;;;10.42;68.95;100301.44;5050315;28;45411;-60
2022/11/21 04:21:01;;;;;;;;;8.50;3.50;;;;;10.58;69.00;100322.25;5050529;28;45207;-60
2022/11/21 04:23:27;;;;;;;;;5.25;3.75;;;;;10.57;68.98;100328.44;5049078;28;45242;-61
2022/11/21 04:25:53;;;;;;;;;4.50;3.00;;;;;10.53;68.90;100325.72;5051151;28;45230;-61
2022/11/21 04:28:19;;;;;;;;;6.75;4.50;;;;;10.47;68.68;100319.34;5050999;28;45160;-61
2022/11/21 04:30:44;;;;;;;;;5.00;2.00;;;;;10.29;68.71;100287.78;5029458;28;47237;-61
2022/11/21 04:33:12;;;;;;;;;3.75;3.00;;;;;10.15;68.88;100279.53;5049718;28;45167;-61
2022/11/21 04:35:37;;;;;;;;;8.50;3.25;;;;;10.28;69.20;100307.38;5050165;28;45387;-60
2022/11/21 04:38:02;;;;;;;;;4.75;4.75;;;;;10.09;69.57;100289.19;5049139;28;45406;-61
2022/11/21 04:40:28;;;;;;;;;5.00;4.50;;;;;10.16;69.50;100304.44;5049297;28;45812;-60
2022/11/21 04:42:53;;;;;;;;;6.50;4.50;;;;;10.14;69.51;100299.06;5051400;28;45266;-60
2022/11/21 04:45:18;;;;;;;;;4.25;4.25;;;;;10.15;69.79;100294.66;5051379;28;45524;-61
2022/11/21 04:47:45;;;;;;;;;5.00;5.00;;;;;10.05;69.59;100282.88;5037767;28;45304;-61
2022/11/21 04:50:13;;;;;;;;;6.50;5.00;;;;;10.18;69.91;100286.72;5051567;28;45120;-61
2022/11/21 04:52:39;;;;;;;;;4.50;4.50;;;;;10.13;69.79;100281.28;5050862;28;44925;-61
2022/11/21 04:55:05;;;;;;;;;6.50;5.00;;;;;10.14;69.48;100272.38;5033057;28;45312;-59
2022/11/21 04:57:31;;;;;;;;;7.25;6.25;;;;;10.15;69.81;100262.63;5051359;28;45295;-61
2022/11/21 04:59:56;;;;;;;;;6.50;5.00;;;;;10.13;70.04;100265.25;5051512;28;45614;-61
2022/11/21 05:02:22;;;;;;;;;5.25;5.00;;;;;10.10;69.76;100253.63;5050834;28;45461;-60
2022/11/21 05:04:48;;;;;;;;;7.50;6.00;;;;;10.12;69.77;100250.09;5049598;28;45442;-61
2022/11/21 05:07:14;;;;;;;;;6.00;4.50;;;;;10.09;70.30;100251.81;5050383;28;45310;-61
2022/11/21 05:09:39;;;;;;;;;6.50;4.50;;;;;10.15;70.05;100249.28;5051177;28;46208;-61
2022/11/21 05:14:49;;;;;;;;;7.25;5.75;;;;;10.08;69.88;100210.88;5049559;28;45127;-61
2022/11/21 05:17:15;;;;;;;;;7.00;5.50;;;;;10.03;70.49;100212.56;5049803;28;45567;-61
2022/11/21 05:19:40;;;;;;;;;5.25;4.50;;;;;10.06;69.66;100227.72;5050571;28;45091;-61
2022/11/21 05:22:06;;;;;;;;;6.00;4.75;;;;;10.07;70.59;100217.06;5049517;28;45192;-61
2022/11/21 05:24:31;;;;;;;;;5.00;5.00;;;;;10.07;70.08;100208.19;5051910;28;45527;-61
2022/11/21 05:26:59;;;;;;;;;7.00;7.00;;;;;10.12;70.07;100220.72;5051645;28;45127;-60
2022/11/21 05:29:25;;;;;;;;;7.50;7.50;;;;;10.12;69.45;100215.41;5049417;28;45142;-60
2022/11/21 05:31:50;;;;;;;;;12.75;4.75;;;;;10.18;69.98;100225.31;5031852;28;45149;-61
2022/11/21 05:34:15;;;;;;;;;10.75;4.50;;;;;10.19;70.52;100235.09;5049430;28;45477;-62
2022/11/21 05:36:41;;;;;;;;;6.75;6.00;;;;;10.21;70.22;100232.47;5049695;28;45211;-61
2022/11/21 05:39:06;;;;;;;;;6.00;4.25;;;;;10.05;69.99;100194.81;5049651;28;46430;-61
2022/11/21 05:41:32;;;;;;;;;6.75;4.75;;;;;10.13;69.33;100202.97;5028930;28;44997;-63
2022/11/21 05:43:58;;;;;;;;;6.25;5.00;;;;;10.26;69.84;100228.09;5049253;28;45151;-62
2022/11/21 05:46:24;;;;;;;;;8.00;4.00;;;;;10.27;69.29;100219.25;5049237;28;45309;-61
2022/11/21 05:48:51;;;;;;;;;9.25;5.50;;;;;10.29;69.53;100217.50;5050274;28;45275;-62
2022/11/21 05:51:18;;;;;;;;;8.00;4.50;;;;;10.20;69.48;100206.66;5050014;28;44971;-61
2022/11/21 05:53:44;;;;;;;;;5.50;5.25;;;;;10.15;69.47;100193.22;5050525;28;45304;-63
2022/11/21 05:56:11;;;;;;;;;7.50;5.25;;;;;10.17;69.32;100194.13;5048991;28;45203;-61
2022/11/21 05:58:37;;;;;;;;;7.75;4.50;;;;;10.19;69.76;100187.03;5031453;28;45367;-61
2022/11/21 06:01:03;;;;;;;;;6.00;5.00;;;;;10.22;69.38;100183.53;5047853;28;45021;-61
2022/11/21 06:03:32;;;;;;;;;5.50;5.50;;;;;10.17;69.52;100182.56;5049426;28;45234;-61
2022/11/21 06:06:00;;;;;;;;;11.50;6.75;;;;;10.15;69.77;100171.84;5049519;28;45071;-62
2022/11/21 06:08:28;;;;;;;;;12.50;10.25;;;;;10.13;70.30;100173.59;5050051;28;46182;-62
2022/11/21 06:10:53;;;;;;;;;9.00;6.25;;;;;10.09;70.01;100155.72;5049145;28;45437;-61
2022/11/21 06:13:22;;;;;;;;;15.75;9.50;;;;;10.20;70.10;100161.28;5049340;28;45192;-61
2022/11/21 06:15:50;;;;;;;;;6.25;4.75;;;;;10.25;70.30;100152.47;5050396;28;45104;-64
2022/11/21 06:18:16;;;;;;;;;8.25;5.50;;;;;10.17;70.10;100126.50;5051276;28;45659;-62
2022/11/21 06:20:41;;;;;;;;;20.75;14.75;;;;;10.28;69.82;100127.59;5049576;28;46074;-63
2022/11/21 06:23:06;;;;;;;;;7.25;7.00;;;;;10.28;69.70;100128.50;5051047;28;45470;-62
2022/11/21 06:25:32;;;;;;;;;8.50;7.75;;;;;10.21;69.75;100112.34;5051827;28;45024;-62
2022/11/21 06:27:59;;;;;;;;;8.50;6.50;;;;;10.26;69.74;100130.25;5032840;28;46578;-61
2022/11/21 06:30:24;;;;;;;;;11.25;4.75;;;;;10.26;70.15;100115.97;5031463;28;45966;-61
2022/11/21 06:32:49;;;;;;;;;11.50;5.75;;;;;10.26;69.83;100110.63;5051218;28;45318;-61
2022/11/21 06:35:15;;;;;;;;;14.00;7.50;;;;;10.25;70.19;100115.09;5049942;28;44973;-61
2022/11/21 06:37:41;;;;;;;;;9.00;6.00;;;;;10.25;69.47;100111.53;5048411;28;45320;-62
2022/11/21 06:40:07;;;;;;;;;10.25;8.25;;;;;10.25;69.59;100116.88;5031650;28;45088;-62
2022/11/21 06:42:33;;;;;;;;;7.50;7.00;;;;;10.28;69.96;100117.81;5049092;28;45129;-60
2022/11/21 06:44:58;;;;;;;;;8.75;8.75;;;;;10.02;69.60;100068.41;5051854;28;44889;-65
2022/11/21 06:47:24;;;;;;;;;7.25;3.25;;;;;10.20;70.26;100098.09;5031410;28;45975;-63
2022/11/21 06:49:50;;;;;;;;;11.25;8.00;;;;;10.25;69.90;100095.50;5050250;28;45272;-61
2022/11/21 06:52:15;;;;;;;;;8.50;7.00;;;;;10.20;69.76;100095.41;5029381;28;45104;-61
2022/11/21 06:54:40;;;;;;;;;11.50;6.75;;;;;10.22;69.93;100092.78;5049773;28;45165;-61
2022/11/21 06:57:06;;;;;;;;;9.00;6.25;;;;;10.20;69.88;100074.06;5051359;28;45251;-61
2022/11/21 06:59:31;;;;;;;;;10.75;9.50;;;;;10.20;69.56;100065.16;5031358;28;45131;-63
2022/11/21 07:01:57;;;;;;;;;5.50;5.50;;;;;10.29;69.71;100065.31;5048603;28;45272;-62
2022/11/21 07:04:22;;;;;;;;;8.25;7.50;;;;;10.28;70.06;100048.41;5054222;28;45004;-62
2022/11/21 07:06:47;;;;;;;;;8.25;6.75;;;;;10.32;70.01;100033.34;5050337;28;45517;-61
2022/11/21 07:09:12;;;;;;;;;23.00;11.75;;;;;10.31;69.76;100036.84;5050425;28;45255;-61
2022/11/21 07:11:38;;;;;;;;;11.00;8.75;;;;;10.31;69.61;100021.75;5048828;28;45163;-63
2022/11/21 07:14:03;;;;;;;;;18.25;13.00;;;;;10.32;69.19;100015.56;5049576;28;45166;-61
2022/11/21 07:16:31;;;;;;;;;17.00;11.25;;;;;10.33;69.35;100012.03;5051651;28;45147;-62
2022/11/21 07:18:57;;;;;;;;;12.25;11.00;;;;;10.25;68.72;99994.06;5052971;28;45060;-62
2022/11/21 07:21:22;;;;;;;;;21.00;17.25;;;;;10.27;68.97;99997.66;5049712;28;45225;-63
2022/11/21 07:23:47;;;;;;;;;12.50;9.75;;;;;10.19;69.00;100001.97;5032428;28;45486;-62
2022/11/21 07:26:13;;;;;;;;;18.50;13.25;;;;;10.21;69.22;99989.53;5024978;28;45750;-60
2022/11/21 07:28:39;;;;;;;;;16.75;11.00;;;;;10.06;68.88;99968.84;5038119;28;45536;-62
2022/11/21 07:31:04;;;;;;;;;20.75;14.00;;;;;10.09;69.02;99980.44;5048101;28;45263;-62
2022/11/21 07:33:30;;;;;;;;;17.50;14.00;;;;;10.04;69.28;99959.91;5037279;28;45374;-63
2022/11/21 07:35:56;;;;;;;;;18.00;13.00;;;;;10.07;69.36;99966.19;5037221;28;45478;-63
2022/11/21 07:38:22;;;;;;;;;21.50;13.25;;;;;10.09;69.25;99974.22;5035593;28;45407;-62
2022/11/21 07:40:48;;;;;;;;;18.75;14.25;;;;;10.11;68.50;99970.72;5034603;28;45753;-63
2022/11/21 07:43:13;;;;;;;;;13.50;10.00;;;;;10.11;68.56;99972.47;5036326;28;45439;-62
2022/11/21 07:45:39;;;;;;;;;11.50;10.50;;;;;9.98;68.59;99965.16;5030183;28;46545;-69
2022/11/21 07:48:06;;;;;;;;;16.00;11.75;;;;;9.75;68.87;99931.91;5057474;28;45961;-72
2022/11/21 07:50:32;;;;;;;;;14.25;13.75;;;;;9.91;69.05;99961.47;5041162;28;45587;-65
2022/11/21 07:53:00;;;;;;;;;20.00;15.75;;;;;9.83;68.71;99944.44;5036904;28;45412;-64
2022/11/21 07:55:28;;;;;;;;;18.75;14.50;;;;;9.84;68.43;99941.81;5038165;28;46552;-68
2022/11/21 07:58:06;;;;;;;;;15.75;11.25;;;;;9.59;68.76;99897.84;5036292;28;45449;-69
2022/11/21 08:00:34;;;;;;;;;12.25;12.25;;;;;9.74;69.67;99921.19;5033584;28;45507;-73
2022/11/21 08:03:00;;;;;;;;;20.50;16.00;;;;;9.73;69.10;99911.41;5036340;28;45328;-69
2022/11/21 08:05:25;;;;;;;;;15.00;14.00;;;;;9.69;68.87;99898.91;5015738;28;47296;-67
2022/11/21 08:07:51;;;;;;;;;19.25;14.50;;;;;9.61;68.86;99890.75;5034778;28;45592;-67
2022/11/21 08:10:17;;;;;;;;;23.00;17.00;;;;;9.39;69.49;99854.84;5035639;28;45527;-65
2022/11/21 08:12:43;;;;;;;;;19.25;17.00;;;;;9.54;69.78;99878.22;5034224;28;45632;-68
2022/11/21 08:15:09;;;;;;;;;22.50;16.50;;;;;9.38;69.60;99853.06;5049736;28;45155;-69
2022/11/21 08:17:34;;;;;;;;;26.00;22.75;;;;;9.48;70.60;99878.09;5035037;28;46109;-69
2022/11/21 08:20:00;;;;;;;;;23.00;18.75;;;;;9.29;70.24;99840.47;5014924;28;46097;-68
2022/11/21 08:22:26;;;;;;;;;22.25;18.00;;;;;9.48;70.07;99857.66;5035624;28;45666;-71
2022/11/21 08:24:53;;;;;;;;;23.75;21.25;;;;;9.40;70.06;99836.22;5015847;28;46462;-72
2022/11/21 08:27:20;;;;;;;;;21.00;15.00;;;;;9.67;70.22;99874.88;5034468;28;46198;-64
2022/11/21 08:29:46;;;;;;;;;16.00;14.25;;;;;9.63;69.72;99870.34;5035174;28;45306;-67
2022/11/21 08:32:11;;;;;;;;;32.25;19.25;;;;;9.59;69.82;99876.50;5032355;28;45438;-72
2022/11/21 08:34:36;;;;;;;;;21.75;15.25;;;;;9.69;70.31;99882.91;5032765;28;46448;-65
2022/11/21 08:37:02;;;;;;;;;19.25;15.50;;;;;9.66;69.85;99885.50;5032327;28;45449;-71
2022/11/21 08:39:29;;;;;;;;;24.00;20.00;;;;;9.69;70.00;99873.09;5033008;28;45534;-69
2022/11/21 08:42:01;;;;;;;;;21.25;17.00;;;;;9.73;69.62;99872.31;5034904;28;45406;-70
2022/11/21 08:44:27;;;;;;;;;22.25;17.50;;;;;9.73;69.38;99866.03;5032162;28;45766;-73
2022/11/21 08:46:53;;;;;;;;;23.00;14.50;;;;;9.72;69.60;99873.16;5032277;28;45517;-71
2022/11/21 08:49:18;;;;;;;;;24.00;17.00;;;;;9.78;70.29;99881.28;5031826;28;45563;-71
2022/11/21 08:51:48;;;;;;;;;17.50;16.00;;;;;9.77;70.22;99883.91;5031651;28;45413;-67
2022/11/21 08:54:14;;;;;;;;;20.75;14.00;;;;;9.80;69.56;99869.69;5014076;28;45625;-72
2022/11/21 08:56:39;;;;;;;;;23.75;14.00;;;;;9.68;70.14;99838.41;5034782;28;45510;-71
2022/11/21 08:59:05;;;;;;;;;16.25;13.75;;;;;9.67;69.95;99837.53;5031644;28;45427;-71
2022/11/21 09:01:30;;;;;;;;;20.50;14.50;;;;;9.71;69.57;99850.03;5033742;28;45726;-68
2022/11/21 09:03:56;;;;;;;;;15.25;12.50;;;;;9.68;70.54;99844.63;5029900;28;46940;-72
2022/11/21 09:06:21;;;;;;;;;16.50;15.50;;;;;9.68;69.82;99820.63;5033219;28;45753;-68
2022/11/21 09:08:46;;;;;;;;;15.75;13.00;;;;;9.71;70.53;99807.34;5032922;28;45683;-68
2022/11/21 09:11:12;;;;;;;;;14.50;12.00;;;;;9.55;70.12;99781.31;5029446;28;45524;-69
2022/11/21 09:13:37;;;;;;;;;16.00;13.50;;;;;9.71;70.42;99802.00;5033500;28;46589;-67
2022/11/21 09:18:47;;;;;;;;;21.75;20.25;;;;;9.73;70.45;99794.03;5033600;28;45483;-71
2022/11/21 09:21:16;;;;;;;;;19.50;15.25;;;;;9.89;70.14;99805.81;5031345;28;45487;-70
2022/11/21 09:23:42;;;;;;;;;21.00;16.50;;;;;9.90;70.05;99813.84;5033961;28;46301;-73
2022/11/21 09:26:07;;;;;;;;;17.00;15.25;;;;;9.87;69.78;99804.91;5032275;28;45766;-61
2022/11/21 09:28:34;;;;;;;;;15.25;11.00;;;;;9.72;70.39;99768.25;5029209;28;45603;-72
2022/11/21 09:31:01;;;;;;;;;15.50;11.25;;;;;9.82;70.24;99764.84;5027830;28;45595;-70
2022/11/21 09:33:26;;;;;;;;;17.75;13.25;;;;;9.78;69.91;99765.66;5032028;28;46507;-69
2022/11/21 09:35:51;;;;;;;;;15.50;14.00;;;;;9.83;70.37;99757.72;5033422;28;45323;-70
2022/11/21 09:38:17;;;;;;;;;14.75;11.00;;;;;9.82;70.00;99742.59;5033613;28;45434;-71
2022/11/21 09:40:44;;;;;;;;;22.50;15.25;;;;;9.74;70.10;99737.16;5034646;28;45415;-70
2022/11/21 09:43:45;;;;;;;;;14.25;12.75;;;;;9.75;70.12;99734.50;5034371;28;45501;-72
2022/11/21 09:46:20;;;;;;;;;16.25;13.50;;;;;9.70;70.49;99724.63;5035676;28;45698;-72
2022/11/21 09:48:57;;;;;;;;;22.25;12.00;;;;;9.55;70.85;99699.56;5033750;28;45509;-72
2022/11/21 09:51:24;;;;;;;;;14.75;12.75;;;;;9.63;70.51;99689.00;5032436;28;45720;-67
2022/11/21 09:53:53;;;;;;;;;3.50;2.50;;;;;9.68;70.57;99683.72;5030352;28;45520;-69
2022/11/21 09:56:22;;;;;;;;;21.25;12.25;;;;;9.70;70.56;99661.53;5030728;28;45395;-71
2022/11/21 09:59:07;;;;;;;;;12.50;11.75;;;;;9.76;70.43;99679.38;5031343;28;45601;-73
2022/11/21 10:01:32;;;;;;;;;15.75;13.25;;;;;9.79;70.82;99676.75;5029040;28;45713;-68
2022/11/21 10:04:01;;;;;;;;;16.00;12.75;;;;;9.82;69.89;99655.47;5033051;28;45560;-69
2022/11/21 10:06:30;;;;;;;;;24.00;18.25;;;;;9.81;70.21;99651.00;5032861;28;45430;-69
2022/11/21 10:08:59;;;;;;;;;16.75;12.25;;;;;9.90;70.48;99647.53;5033598;28;45517;-69
2022/11/21 10:14:58;;;;;;;;;24.00;21.00;;;;;10.07;69.71;99621.03;5000030;28;45590;-67
2022/11/21 10:18:01;;;;;;;;;13.75;10.75;;;;;10.06;69.50;99617.47;5031717;28;45603;-67
2022/11/21 10:20:51;;;;;;;;;13.25;10.00;;;;;10.10;69.48;99602.41;5028162;28;45504;-71
2022/11/21 10:23:38;;;;;;;;;23.00;17.75;;;;;10.19;69.60;99596.25;5034317;28;45836;-70
2022/11/21 10:26:13;;;;;;;;;18.50;11.00;;;;;10.04;69.25;99571.19;5041821;28;45343;-71
2022/11/21 10:28:57;;;;;;;;;15.25;11.00;;;;;10.09;68.63;99564.13;5040654;28;45818;-70
2022/11/21 10:31:29;;;;;;;;;12.50;8.50;;;;;10.22;68.76;99570.47;5043091;28;45457;-70
2022/11/21 10:33:55;;;;;;;;;16.00;11.75;;;;;10.29;68.72;99553.59;5052949;28;45142;-67
2022/11/21 10:36:37;;;;;;;;;18.50;11.00;;;;;10.40;68.71;99559.09;5049736;28;45768;-69
2022/11/21 10:39:16;;;;;;;;;15.50;11.00;;;;;10.46;68.21;99566.22;5044795;28;45088;-62
2022/11/21 10:42:17;;;;;;;;;15.00;7.00;;;;;10.51;67.29;99554.72;5049523;28;45276;-70
2022/11/21 10:47:38;;;;;;;;;8.75;8.75;;;;;10.38;67.21;99526.16;5043076;28;45144;-61
2022/11/21 10:50:09;;;;;;;;;13.00;5.00;;;;;10.39;67.50;99525.25;5040837;28;45213;-67
2022/11/21 10:52:50;;;;;;;;;12.50;10.50;;;;;10.47;67.74;99515.50;5033338;28;45166;-71
2022/11/21 10:55:16;;;;;;;;;10.25;8.25;;;;;10.39;67.14;99492.31;5048026;28;45226;-69
2022/11/21 10:57:44;;;;;;;;;17.75;8.00;;;;;10.48;67.62;99514.63;5040442;28;45485;-73
2022/11/21 11:00:19;;;;;;;;;8.50;7.25;;;;;10.51;67.26;99501.31;5049221;28;45175;-70
2022/11/21 11:02:54;;;;;;;;;8.75;8.50;;;;;10.61;67.65;99499.59;5047088;28;45621;-71
2022/11/21 11:05:24;;;;;;;;;11.50;7.75;;;;;10.49;67.02;99489.75;5043696;28;45191;-69
2022/11/21 11:08:13;;;;;;;;;15.25;8.50;;;;;10.46;67.81;99489.72;5051686;28;45723;-73
2022/11/21 11:10:44;;;;;;;;;10.25;2.00;;;;;10.35;67.96;99480.72;5052347;28;45232;-67
2022/11/21 11:16:05;;;;;;;;;15.00;9.00;;;;;10.39;68.54;99482.53;5050862;28;45751;-71
2022/11/21 11:18:33;;;;;;;;;3.50;2.50;;;;;10.17;67.87;99428.06;5052050;28;45554;-70
2022/11/21 11:21:20;;;;;;;;;10.75;8.00;;;;;10.48;67.74;99468.38;5035459;28;45094;-68
2022/11/21 11:23:48;;;;;;;;;16.50;9.50;;;;;10.42;67.77;99439.81;5053134;28;45132;-71
2022/11/21 11:26:26;;;;;;;;;10.00;7.50;;;;;10.57;67.04;99452.38;5051388;28;45245;-67
2022/11/21 11:28:54;;;;;;;;;12.25;9.25;;;;;10.48;67.37;99429.19;5040726;28;45515;-73
2022/11/21 11:31:20;;;;;;;;;16.75;12.75;;;;;10.60;67.10;99430.16;5033846;28;45442;-67
2022/11/21 11:33:51;;;;;;;;;21.50;15.25;;;;;10.56;67.32;99418.56;5028888;28;45450;-72
2022/11/21 11:36:36;;;;;;;;;17.25;15.50;;;;;10.68;67.74;99420.38;5026691;28;45588;-74
2022/11/21 11:39:15;;;;;;;;;23.50;13.00;;;;;10.71;67.11;99420.41;5031651;28;47388;-73
2022/11/21 11:48:09;;;;;;;;;13.00;11.00;;;;;10.40;66.91;99329.47;5034856;28;45470;-72